Timeline UpdatesTrip UpdatesNews PostsPvt PostsTravel TipsAdmin PostsConv PostsFollowed PostsChat RequestsBlog PostsPNR Posts

Disclaimer
Search
 
 
Wed Apr 23, 2014 20:58:14 ISTHomeTrainsΣChainsAtlasPNRForumGalleryNewsFAQTripsMembersLoginFeedback
No Recent News for this Train
Other Trains in the News **new
Latest...
.
Sat Feb 22, 2014 (11:06PM)
⇐ Return Journey: Train# 58114

58113/Tatanagar Bilaspur Passenger

Feb 22 2014 (11:05PM)
Change Departure Station:
Change Arrival Station:
Post a Train Travel TipPost a Train Travel Tip **new
Post a Comment/Question/Picture/VideoPost a Comment/Question/Picture/Video
Pantry/Catering
✕ NO Pantry Car
✕ NO Catering
RSA - Rake Sharing
Rake/Coach Composition
ENG:SLR-1 UR-3 SL-4 UR-3 VP-1 SLR-1; Entry# 189608 ; Author: sunilsagitarius
Loco
WAM-4 TATA/WAG-5 TATA
News    PNR    Forum    Time-Table    Availability    Fare Chart    Map    Arr/Dep History    Trips    Gallery    ΣChains    X/O    Timeline    
Travel Time: 10h 59m    50 halts    Distance: 426 km    Avg Speed: 38 km/hr
Type: Passenger
Zone: SER/South Eastern
Departs @ 17:45 (Avg 3m late)
Platform# 1
SMTWTFS
Tatanagar Junction/TATA 
Arrives @ 04:44 +1 night (Avg 49m late)
Platform# ???
SMTWTFS
Naila/NIA 

50 halts. 55 intermediate Stations between Tatanagar Junction and Naila

Hide intermediate Stations  Show Old Time-Table

#CodeStation NameX/OArrivesAvgDepartsAvgHaltPFDay#KmSpeedElevZoneAddress
1TATA»Tatanagar Junction (5)»  -17:45+3110.025164mSER91-657-2423026, Jharkhand
2ADTPAdityapur (3)  17:56+1217:57+131m114.745152mSERJamshedpur, Jharkhand
3GMHGamharia (3)  18:05+1518:06+171m1110.770165mSERJamshedpur, Jharkhand
3.1BRBSBirbansX  18:14-18:14-  119.7 70171mSERBirbans, Jharkhand
4SINISini JunctionX  18:20+2318:21+251m--127.051182mSERNational Highway 33, Jharkhand
5MMVMahali Marup  18:30+2518:31+281m--134.750183mSERMahali Marup Station, Jharkhand
6RKSNRajkharsawan Junction  18:40+2818:41+291m--142.256189mSERWest Singhbhum district, Jharkhand
7BRMBarabamboXO  18:51+3118:52+331m--151.623213mSERBarabambo Station, Jharkhand
8CKPChakradharpur (3)  19:20+1619:30+2110m--162.371235mSERChakradharpur (West Singhbhum), Jharkhand
9LPHLotapahar  19:38+2919:39+301m--171.869251mSERLotapahar Station, Jharkhand
10SWRSonua  19:49+3219:50+331m--183.260287mSERSonua, Jharkhand
11TUXTunia  19:56+3319:57+341m--189.251297mSERTunia Station, Jharkhand
12GOLGoilkeraXO  20:05+3620:06+371m--196.036333mSERGoilkera, Jharkhand
12.1MXWMahadevsal  20:15-20:15-  1101.4 36321mSERMahadevsal, Jharkhand
13DRWNDerowan P. Halt  20:22+4020:23+401m--1105.759275mSERDerowan, Jharkhand
14PSTPosotia  20:30+4020:31+431m--1112.551279mSERPosotia Station, Jharkhand
15MOUManoharpurX  20:44+4520:45+481m--1123.562228mSERManoharpur, Jharkhand
16JRAJaraikela  20:56+5120:57+551m--1134.956215mSERJaraikela Station, Jharkhand
17BULBhalulataX  21:05+5421:06+551m--1142.482239mSERRourkela, Jharkhand
18BZRBisra  21:11+5721:12+591m--1149.265224mSERSundargarh, Odisha
18.1ACABBondamunda A Cabin  21:17-21:17-  1154.7 65214mSERRourkela, Odisha
19BNDMBondamunda (3)  21:19+5221:20+501m--1156.810213mSERRourkela, Odisha
20ROURourkela Junction (5)X  22:00+2622:15+2815m--1163.345198mSERRourkela, Odisha
21PPOPanposh (2)  22:23+4822:24+481m--1169.345190mSERRourkela, Odisha
22KLGKalungaX  22:34+4822:35+501m--1176.861203mSERSundargarh, Odisha
23KXNKanshbahal  22:42+5122:43+551m--1183.955220mSERSundargarh, Odisha
24GPRaj Gangpur (3)  22:53+5522:54+551m--1193.155237mSERRaj Ganpur, Odisha
25SXNSonakhanX  23:02+5323:03+571m--1200.455249mSERSundargarh, Odisha
26SOGRSogra  23:10+5623:11+561m--1206.947293mSERState Highway 10, Odisha
27GPHGarpos (3)  23:17+5523:18+581m--1211.652278mSERSundargarh, Odisha
28TGMTangarmunda  23:27+5623:28+571m--1219.351264mSERSundargarh, Odisha
29BMBBamra (3)XO  23:38+5223:39+541m--1227.744259mSERBamra PH : 06642-229268, Odisha
30DIHDharuadihiX  23:52+5323:53+541m--1237.347258mSERSH 24, Odisha
31BEHBagdihi (3)  00:01+5300:02+551m--2243.666254mSERState Highway 24 PH: 06640-286227, Odisha
32PNPLPanpali  00:08+5600:09+561m--2250.265258mSERJharsuguda, Odisha
33DTVDhutra  00:14+5400:15+571m--2255.67240mSERJharsuguda, Odisha
33.1JSRYJharsuguda R - YardXO  00:33-00:33-  2257.7 7224mSERDhutra, Odisha
34JSGJharsuguda Junction (5)X  01:30+1301:45+1215m--2264.290236mSERJharsuguda, Odisha
35IBIb  01:51+2201:52+221m--2273.240207mSECRJharsuguda, Odisha
36BRJNBrajrajnagar  01:56+2201:57+231m--2275.967212mSECRBrajrajnagar, Odisha
37BPHBelpahar  02:05+2602:06+301m--2284.867235mSECRBelpahar, Odisha
38HGRHimgir  02:18+2902:19+301m--2298.364275mSECRNational Highway 200, Chhattisgarh
39DAODaghora  02:26+3002:27+301m--2305.772269mSECRRaigarh, Chhattisgarh
40JMGJamga  02:37+3002:38+311m--2317.773233mSECRJamga Station, Chhattisgarh
41KRLKotarlia  02:45+3102:46+321m--2326.242229mSECRRaigarh, Chhattisgarh
42RIGRaigarh (3)X  03:00+2703:05+315m--2335.962220mSECRRaigarh, Chhattisgarh
43KDTRKirodimalnagar  03:12+3503:13+361m--2343.179240mSECRRaigarh, Chhattisgarh
44BEFBhupdeopur  03:20+3703:21+391m--2352.377243mSECRRaigarh, Chhattisgarh
45ROBRobertson  03:28+4103:29+431m--2361.464239mSECRRaigarh, Chhattisgarh
46KHSKharsia  03:37+4403:38+451m--2369.952259mSECRNational Highway 200, Chhattisgarh
47JDIJharradih  03:44+4603:45+461m--2375.168247mSECRRaigarh, Chhattisgarh
48SKTSakti (4)  03:54+4503:55+491m--2385.264237mSECRJanjgir-Champa, Chhattisgarh
48.1JDDAJetha  04:02-04:02-  2393.0 64244mSECRNational Highway 200, Chhattisgarh
49BUABaradwar  04:09+4904:10+511m--2400.156256mSECRJanjgir-Champa, Chhattisgarh
50SGRDSaragaon RoadO  04:17+5104:18+511m--2406.745254mSECRNational Highway 200, Chhattisgarh
51CPHChampa Junction (3)  04:30+4704:35+475m--2415.672264mSECRNational Highway 200 (07819-245767), Chhattisgarh
52NIA•Naila•  04:44+4904:45+501m--2426.562273mSECRJanjgir, Chhattisgarh
53KPNAKapan (1)O  04:52+5204:53+531m12433.758263mSECRNational Highway 200, Chhattisgarh
54AKTAkaltara (4)  05:01+5405:02+551m--2441.455284mSECRDist. Janjgir Champa, Chhattisgarh
54.1LATILatia CabinX  05:04-05:04-  2443.5 55270mSECRKotmi Road, Chhattisgarh
55KTSHKotmi Sonar Halt  05:09+5105:10+521m--2447.845266mSECRKotmisunar, Chhattisgarh
56JRMGJairamnagar  05:19+5105:20+521m--2454.516272mSECRNational Highway 200, Chhattisgarh
57GTWGatora  05:49+3305:50+341m--2462.27268mSECRBilaspur, Chhattisgarh
58BSPBilaspur Junction (8)  06:45+15-22468.7-271mSECRBilaspur, Chhattisgarh
Scroll to Top
Scroll to Bottom